LPPT/LIS METAR and TAF weather

Enter ICAO airport designator
Station Type Date Time Source
LPPT METAR 2021/09/28 04:30 UTC NOAA

LPPT 280430Z 34007KT CAVOK 16/12 Q1022


Station Type Date Time Source
LPPT Decoded METAR 2021/09/28 04:30 UTC NOAA

Lisboa / Portela, Portugal (LPPT) 38-46N 009-08W 123M
Sep 28, 2021 - 12:30 AM EDT / 2021.09.28 0430 UTC
Wind: from the NNW (340 degrees) at 8 MPH (7 KT):0
Visibility: greater than 7 mile(s):0
Temperature: 60 F (16 C)
Dew Point: 53 F (12 C)
Relative Humidity: 77%
Pressure (altimeter): 30.18 in. Hg (1022 hPa)
ob: LPPT 280430Z 34007KT CAVOK 16/12 Q1022
cycle: 4

Station Type Date Time Source
LPPT TAF 2021/09/27 18:18 UTC NOAA

TAF LPPT 271700Z 2718/2824 31010KT 9999 FEW015 SCT030 PROB30
TEMPO 2719/2723 BKN008
BECMG 2800/2802 35010KT FEW015
BECMG 2809/2812 35015KT FEW030 PROB30
TEMPO 2812/2821 34018G30KT

Example: see airport list